Time;durP1;ratioP1;P1;durP2;ratioP2;P2;SDS_P1;SDS_P2;PMS_P1;PMS_P2;Temp;Humidity;BMP_temperature;BMP_pressure;BME280_temperature;BME280_humidity;BME280_pressure;Samples;Min_cycle;Max_cycle;Signal;HPM_P1;HPM_P2
2023/10/09 00:01:04;;;;;;;70.68;3.90;;;;;;;23.45;53.82;100011.56;7306038;19;130367;-36
2023/10/09 00:03:29;;;;;;;119.35;5.90;;;;;;;23.32;53.85;99984.75;7306584;19;129575;-36
2023/10/09 00:05:55;;;;;;;106.03;5.30;;;;;;;23.40;54.48;99987.53;7305670;19;130709;-38
2023/10/09 00:08:21;;;;;;;236.32;12.15;;;;;;;23.45;54.85;99990.56;7301893;19;131280;-35
2023/10/09 00:10:57;;;;;;;135.67;7.37;;;;;;;23.46;54.34;99994.00;7304670;19;130379;-39
2023/10/09 00:13:31;;;;;;;119.43;6.28;;;;;;;23.42;54.51;99990.81;7303955;19;128995;-37
2023/10/09 00:16:08;;;;;;;114.40;5.68;;;;;;;23.41;54.67;99994.44;7305670;19;129267;-38
2023/10/09 00:18:34;;;;;;;98.53;5.30;;;;;;;23.43;54.77;99987.25;7304221;19;131098;-38
2023/10/09 00:21:01;;;;;;;80.45;4.35;;;;;;;23.30;54.42;99965.72;7306038;19;129815;-36
2023/10/09 00:23:28;;;;;;;98.65;5.35;;;;;;;23.43;54.27;99981.16;7306303;19;129069;-39
2023/10/09 00:26:09;;;;;;;139.77;7.25;;;;;;;23.45;53.90;99960.84;7305604;19;129687;-38
2023/10/09 00:28:41;;;;;;;106.07;5.28;;;;;;;23.42;54.21;99948.84;7303422;19;130171;-35
2023/10/09 00:31:07;;;;;;;97.22;5.15;;;;;;;23.43;54.14;99950.50;7305117;19;131284;-37
2023/10/09 00:33:36;;;;;;;91.97;5.10;;;;;;;23.42;54.28;99948.84;7305408;19;129301;-38
2023/10/09 00:36:10;;;;;;;102.82;5.38;;;;;;;23.42;54.29;99955.91;7304875;19;129020;-36
2023/10/09 00:38:46;;;;;;;83.60;4.28;;;;;;;23.37;54.43;99918.78;7302194;19;130980;-32
2023/10/09 00:41:20;;;;;;;101.78;5.35;;;;;;;23.44;54.64;99894.41;7304524;19;131091;-38
2023/10/09 00:43:45;;;;;;;151.23;7.55;;;;;;;23.41;54.85;99892.09;7302553;19;132162;-38
2023/10/09 00:48:51;;;;;;;131.80;6.82;;;;;;;23.41;54.78;99863.22;7302476;19;130446;-36
2023/10/09 00:51:24;;;;;;;94.97;5.13;;;;;;;23.36;53.90;99848.88;7304610;19;130283;-38
2023/10/09 00:53:52;;;;;;;144.60;7.38;;;;;;;23.41;54.14;99850.09;7305751;19;130011;-37
2023/10/09 00:56:28;;;;;;;127.60;6.28;;;;;;;23.41;54.14;99839.59;7304371;19;129536;-34
2023/10/09 00:59:08;;;;;;;131.40;7.15;;;;;;;23.21;52.49;99866.84;7303292;19;130155;-38
2023/10/09 01:01:36;;;;;;;64.65;3.60;;;;;;;23.36;53.65;99881.19;7305019;19;130237;-38
2023/10/09 01:04:17;;;;;;;101.72;5.50;;;;;;;23.39;54.19;99891.41;7304497;19;128944;-35
2023/10/09 01:06:44;;;;;;;124.05;6.70;;;;;;;23.42;54.43;99891.09;7299538;19;129967;-39
2023/10/09 01:09:14;;;;;;;161.73;7.97;;;;;;;23.41;54.22;99889.47;7300015;19;130910;-37
2023/10/09 01:12:17;;;;;;;100.13;5.15;;;;;;;23.41;54.06;99883.38;7302385;19;130463;-36
2023/10/09 01:14:38;;;;;;;112.40;5.53;;;;;;;23.39;54.55;99882.72;7302987;19;129358;-36
2023/10/09 01:17:11;;;;;;;121.07;6.00;;;;;;;23.27;54.27;99868.94;7303862;19;129438;-37
2023/10/09 01:19:37;;;;;;;97.47;5.15;;;;;;;23.36;54.41;99882.97;7302432;19;130515;-38
2023/10/09 01:22:12;;;;;;;103.20;5.10;;;;;;;23.38;54.02;99868.78;7303137;19;130289;-36
2023/10/09 01:24:38;;;;;;;77.97;4.25;;;;;;;23.41;54.69;99867.63;7304247;19;129475;-38
2023/10/09 01:27:11;;;;;;;156.90;7.65;;;;;;;23.41;54.53;99868.47;7309915;19;129330;-37
2023/10/09 01:29:36;;;;;;;91.95;4.80;;;;;;;23.41;54.81;99855.34;7309942;19;130464;-35
2023/10/09 01:32:02;;;;;;;94.17;5.00;;;;;;;23.39;54.45;99838.13;7307364;19;130570;-38
2023/10/09 01:34:49;;;;;;;70.83;3.77;;;;;;;23.40;54.82;99840.59;7311292;19;129985;-38
2023/10/09 01:37:19;;;;;;;;;;;;;;;23.40;55.43;99832.72;7311737;19;129190;-38
2023/10/09 01:39:48;;;;;;;168.05;8.18;;;;;;;23.38;55.21;99824.16;7307894;19;131137;-35
2023/10/09 01:42:24;;;;;;;101.45;5.22;;;;;;;23.40;54.93;99822.22;7309958;19;130461;-38
2023/10/09 01:44:50;;;;;;;106.60;5.68;;;;;;;23.40;54.51;99829.25;7311313;19;130250;-37
2023/10/09 01:47:18;;;;;;;108.03;5.27;;;;;;;23.24;54.58;99811.47;7310492;19;129552;-38
2023/10/09 01:49:44;;;;;;;118.88;6.07;;;;;;;23.37;54.68;99835.59;7308706;19;130086;-36
2023/10/09 01:52:15;;;;;;;98.63;4.93;;;;;;;23.37;54.29;99822.50;7309919;19;131084;-38
2023/10/09 01:54:41;;;;;;;79.68;4.07;;;;;;;23.38;54.22;99816.28;7309591;19;129613;-38
2023/10/09 01:57:22;;;;;;;112.53;5.77;;;;;;;23.35;54.33;99806.09;7308422;19;130447;-37
2023/10/09 01:59:49;;;;;;;99.65;5.43;;;;;;;23.24;54.19;99772.97;7307298;19;130137;-38
2023/10/09 02:02:35;;;;;;;90.25;4.57;;;;;;;23.37;54.65;99796.25;7309781;19;130340;-38
2023/10/09 02:05:24;;;;;;;120.60;5.90;;;;;;;23.41;54.68;99781.03;7305665;19;128893;-37
2023/10/09 02:07:53;;;;;;;117.80;5.97;;;;;;;23.41;55.06;99770.56;7308217;19;129039;-37
2023/10/09 02:12:57;;;;;;;103.00;5.68;;;;;;;23.38;54.65;99762.97;7309269;19;130615;-38
2023/10/09 02:23:30;;;;;;;89.95;4.53;;;;;;;23.29;54.16;99733.19;7309568;19;129623;-37
2023/10/09 02:26:02;;;;;;;144.75;7.40;;;;;;;23.12;51.60;99731.34;7309184;19;129788;-36
2023/10/09 02:28:32;;;;;;;137.73;6.47;;;;;;;23.29;54.04;99721.91;7307260;19;129334;-38
2023/10/09 02:31:00;;;;;;;116.03;5.95;;;;;;;23.33;54.02;99712.75;7308484;19;131561;-38
2023/10/09 02:33:30;;;;;;;85.35;4.50;;;;;;;23.38;53.96;99705.25;7309050;19;130369;-39
2023/10/09 02:35:59;;;;;;;107.85;5.88;;;;;;;23.38;54.38;99700.00;7306419;19;129157;-38
2023/10/09 02:38:26;;;;;;;128.90;6.10;;;;;;;23.36;53.90;99694.91;7306395;19;130237;-38
2023/10/09 02:43:34;;;;;;;125.72;6.43;;;;;;;23.32;54.79;99696.16;7306283;19;131015;-38
2023/10/09 02:46:12;;;;;;;101.18;5.15;;;;;;;23.35;54.28;99684.56;7306076;19;129840;-35
2023/10/09 02:48:42;;;;;;;287.10;15.75;;;;;;;23.34;54.93;99681.09;7300588;19;129637;-36
2023/10/09 02:51:14;;;;;;;194.85;9.57;;;;;;;23.35;54.42;99667.03;7298965;19;130180;-37
2023/10/09 02:53:40;;;;;;;130.15;6.13;;;;;;;23.35;54.85;99664.41;7305902;19;130451;-37
2023/10/09 02:56:17;;;;;;;102.27;5.33;;;;;;;23.36;54.55;99659.97;7307021;19;129568;-38
2023/10/09 02:58:43;;;;;;;174.82;8.98;;;;;;;23.33;54.99;99637.50;7298839;19;129419;-36
2023/10/09 03:01:13;;;;;;;114.33;6.20;;;;;;;23.36;55.14;99631.13;7305404;19;130139;-38
2023/10/09 03:03:44;;;;;;;113.25;5.45;;;;;;;23.33;54.80;99619.13;7307436;19;130831;-38
2023/10/09 03:06:12;;;;;;;82.18;4.22;;;;;;;23.35;54.63;99617.19;7308878;19;129513;-37
2023/10/09 03:08:38;;;;;;;70.57;3.83;;;;;;;23.37;54.96;99625.72;7307090;19;129972;-37
2023/10/09 03:11:05;;;;;;;87.80;4.70;;;;;;;23.23;54.74;99608.69;7305968;19;130985;-36
2023/10/09 03:13:33;;;;;;;70.78;3.65;;;;;;;23.31;54.79;99601.88;7305388;19;130919;-38
2023/10/09 03:15:58;;;;;;;154.55;7.88;;;;;;;23.35;54.84;99600.63;7305837;19;129703;-38
2023/10/09 03:18:24;;;;;;;73.90;3.73;;;;;;;23.36;55.26;99592.59;7306768;19;130407;-37
2023/10/09 03:20:50;;;;;;;96.77;5.33;;;;;;;23.36;54.80;99584.72;7304810;19;130106;-37
2023/10/09 03:23:15;;;;;;;102.80;5.05;;;;;;;23.36;55.01;99574.22;7305911;19;130390;-37
2023/10/09 03:25:45;;;;;;;185.35;9.23;;;;;;;23.38;55.16;99567.03;7305835;19;131575;-38
2023/10/09 03:28:12;;;;;;;74.18;3.90;;;;;;;23.37;55.00;99559.31;7307317;19;130891;-37
2023/10/09 03:30:40;;;;;;;67.85;3.45;;;;;;;23.32;54.95;99548.44;7306270;19;130794;-36
2023/10/09 03:33:06;;;;;;;83.28;4.22;;;;;;;23.37;55.21;99549.63;7303441;19;130875;-38
2023/10/09 03:35:34;;;;;;;126.07;5.85;;;;;;;23.33;54.45;99540.44;7306072;19;129151;-38
2023/10/09 03:38:11;;;;;;;141.20;7.03;;;;;;;23.22;54.67;99523.09;7305465;19;129763;-38
2023/10/09 03:40:42;;;;;;;44.95;2.65;;;;;;;23.34;55.08;99552.56;7306706;19;130233;-37
2023/10/09 03:43:10;;;;;;;89.28;4.53;;;;;;;23.35;54.99;99564.72;7303999;19;131053;-38
2023/10/09 03:45:35;;;;;;;40.75;2.38;;;;;;;23.36;55.38;99568.16;7304666;19;130734;-38
2023/10/09 03:48:22;;;;;;;171.77;8.30;;;;;;;23.12;53.67;99566.13;7304172;19;129265;-37
2023/10/09 03:50:48;;;;;;;144.27;6.80;;;;;;;23.20;54.45;99563.56;7305651;19;130575;-35
2023/10/09 03:53:14;;;;;;;71.45;3.58;;;;;;;23.26;54.13;99570.81;7302983;19;130384;-37
2023/10/09 03:55:40;;;;;;;68.93;3.67;;;;;;;23.29;54.42;99560.06;7305808;19;129316;-37
2023/10/09 03:58:12;;;;;;;105.40;4.90;;;;;;;23.31;55.12;99570.41;7304541;19;129420;-38
2023/10/09 04:00:45;;;;;;;122.07;6.20;;;;;;;23.32;54.40;99569.44;7306721;19;130826;-38
2023/10/09 04:03:11;;;;;;;82.57;4.35;;;;;;;23.35;54.16;99551.59;7306036;19;131987;-37
2023/10/09 04:05:37;;;;;;;82.63;3.97;;;;;;;23.37;54.65;99554.06;7306457;19;129049;-39
2023/10/09 04:08:11;;;;;;;110.63;5.43;;;;;;;23.19;54.83;99523.41;7305006;19;129399;-37
2023/10/09 04:10:43;;;;;;;100.22;4.88;;;;;;;23.31;54.68;99555.50;7306373;19;131404;-37
2023/10/09 04:13:12;;;;;;;121.43;5.60;;;;;;;23.34;54.87;99552.56;7303378;19;130590;-35
2023/10/09 04:15:42;;;;;;;78.95;4.18;;;;;;;23.36;54.50;99555.88;7301082;19;129124;-33
2023/10/09 04:18:14;;;;;;;133.10;6.85;;;;;;;23.34;54.63;99562.25;7299738;19;131124;-37
2023/10/09 04:21:16;;;;;;;65.38;3.47;;;;;;;23.34;54.51;99557.00;7306607;19;130159;-36
2023/10/09 04:23:59;;;;;;;117.72;6.25;;;;;;;23.34;54.91;99557.81;7299400;19;131457;-39
2023/10/09 04:26:25;;;;;;;130.35;6.43;;;;;;;23.31;55.18;99563.38;7302209;19;129539;-38
2023/10/09 04:28:53;;;;;;;96.50;4.73;;;;;;;23.29;54.59;99565.31;7299570;19;131439;-37
2023/10/09 04:31:21;;;;;;;86.40;4.25;;;;;;;23.32;54.51;99551.88;7303676;19;130231;-37
2023/10/09 04:34:21;;;;;;;97.78;4.97;;;;;;;23.32;54.88;99548.44;7303993;19;130864;-36
2023/10/09 04:36:46;;;;;;;106.88;5.65;;;;;;;23.34;55.08;99557.81;7300088;19;129253;-37
2023/10/09 04:44:24;;;;;;;159.95;8.00;;;;;;;23.32;55.01;99538.75;7301068;19;130985;-37
2023/10/09 05:02:56;;;;;;;102.28;5.07;;;;;;;23.28;55.28;99500.72;7301218;19;129478;-32
2023/10/09 05:08:22;;;;;;;101.88;5.13;;;;;;;23.31;55.44;99479.41;7303107;19;129092;-38
2023/10/09 05:16:04;;;;;;;154.25;7.68;;;;;;;23.25;54.12;99466.88;7303387;19;129493;-35
2023/10/09 05:18:36;;;;;;;74.30;4.00;;;;;;;23.32;54.76;99477.63;7303537;19;129331;-37
2023/10/09 05:23:52;;;;;;;75.88;3.83;;;;;;;23.32;54.51;99464.50;7303851;19;129983;-38
2023/10/09 05:26:37;;;;;;;81.63;4.28;;;;;;;23.29;54.67;99465.63;7303825;19;131376;-37
2023/10/09 05:29:19;;;;;;;97.85;5.18;;;;;;;23.31;55.18;99450.56;7302072;19;130879;-39
2023/10/09 05:32:15;;;;;;;83.65;4.10;;;;;;;23.21;54.96;99437.53;7302890;19;129471;-38
2023/10/09 05:37:34;;;;;;;77.43;3.85;;;;;;;23.14;55.01;99430.41;7302574;19;130117;-38
2023/10/09 05:47:54;;;;;;;75.65;4.13;;;;;;;23.27;55.31;99462.31;7304745;19;129274;-39
2023/10/09 06:06:02;;;;;;;92.90;4.70;;;;;;;23.26;54.97;99463.28;7303237;19;130216;-36
2023/10/09 06:14:12;;;;;;;90.07;4.72;;;;;;;23.31;54.16;99458.44;7304705;19;130825;-40
2023/10/09 06:16:59;;;;;;;94.50;4.93;;;;;;;23.25;55.28;99467.69;7310414;19;130230;-37
2023/10/09 06:19:26;;;;;;;65.50;3.97;;;;;;;23.13;54.95;99441.88;7306113;19;130428;-38
2023/10/09 06:24:41;;;;;;;153.82;7.90;;;;;;;23.22;55.19;99457.50;7307209;19;130083;-34
2023/10/09 06:29:36;;;;;;;102.03;5.50;;;;;;;23.18;54.79;99453.56;7307554;19;130119;-39
2023/10/09 06:38:21;;;;;;;73.20;4.38;;;;;;;23.19;54.78;99459.63;7307795;19;130086;-35
2023/10/09 06:43:16;;;;;;;121.65;6.70;;;;;;;23.20;54.38;99469.16;7309666;19;129288;-36
2023/10/09 06:45:45;;;;;;;88.53;5.30;;;;;;;23.20;54.71;99469.16;7307804;19;129651;-35
2023/10/09 06:53:58;;;;;;;100.50;5.72;;;;;;;23.19;54.23;99457.00;7308394;19;129416;-38
2023/10/09 06:56:30;;;;;;;116.70;6.40;;;;;;;23.05;52.03;99466.25;7305912;19;128902;-38
2023/10/09 06:59:03;;;;;;;33.17;2.60;;;;;;;23.20;53.73;99461.28;7306523;19;132224;-40
2023/10/09 07:06:50;;;;;;;68.78;4.13;;;;;;;23.18;54.66;99473.72;7307619;19;130146;-38
2023/10/09 07:09:18;;;;;;;141.45;7.60;;;;;;;23.19;54.65;99491.09;7305097;19;130168;-35
2023/10/09 07:22:16;;;;;;;120.27;6.83;;;;;;;23.22;54.40;99506.53;7306646;19;130131;-37
2023/10/09 07:24:49;;;;;;;99.05;5.53;;;;;;;23.22;55.39;99503.94;7304318;19;129716;-39
2023/10/09 07:27:17;;;;;;;238.18;12.25;;;;;;;23.23;54.36;99492.44;7304976;19;129374;-37
2023/10/09 07:29:48;;;;;;;77.38;4.68;;;;;;;23.25;54.67;99485.25;7306603;19;130280;-37
2023/10/09 07:32:20;;;;;;;85.18;5.43;;;;;;;23.27;55.12;99487.75;7307367;19;130440;-39
2023/10/09 07:34:57;;;;;;;72.28;4.32;;;;;;;23.25;54.74;99495.75;7308015;19;129566;-38
2023/10/09 07:37:35;;;;;;;69.50;4.23;;;;;;;23.26;55.03;99500.00;7306810;19;129567;-36
2023/10/09 07:40:07;;;;;;;97.18;5.15;;;;;;;23.26;55.33;99505.25;7305400;19;130623;-35
2023/10/09 07:45:53;;;;;;;85.13;4.78;;;;;;;23.26;54.73;99505.25;7309291;19;129478;-37
2023/10/09 07:48:04;;;;;;;81.80;4.57;;;;;;;23.28;54.91;99518.25;7306729;19;129804;-36
2023/10/09 07:50:40;;;;;;;84.00;5.05;;;;;;;23.28;55.31;99516.44;7307968;19;130330;-38
2023/10/09 07:53:25;;;;;;;91.00;5.13;;;;;;;23.27;55.00;99509.53;7306001;19;132155;-39
2023/10/09 07:55:55;;;;;;;61.70;3.75;;;;;;;23.25;55.18;99506.25;7308174;19;130953;-34
2023/10/09 07:58:27;;;;;;;53.17;3.35;;;;;;;23.30;55.03;99513.66;7305888;19;129233;-38
2023/10/09 08:01:06;;;;;;;99.80;5.50;;;;;;;23.17;55.83;99493.06;7307036;19;129765;-38
2023/10/09 08:03:34;;;;;;;97.47;5.28;;;;;;;23.27;55.10;99517.41;7307343;19;130446;-37
2023/10/09 08:07:06;;;;;;;75.40;4.28;;;;;;;23.26;55.05;99518.38;7307957;19;129337;-37
2023/10/09 08:12:13;;;;;;;68.53;4.35;;;;;;;23.23;54.76;99529.16;7307486;19;129553;-38
2023/10/09 08:17:20;;;;;;;92.45;5.55;;;;;;;23.22;55.41;99522.28;7305990;19;129425;-37
2023/10/09 08:20:11;;;;;;;75.90;4.30;;;;;;;23.25;54.88;99524.59;7305189;19;128889;-39
2023/10/09 08:22:43;;;;;;;64.53;3.85;;;;;;;23.13;54.27;99523.19;7306409;19;130223;-36
2023/10/09 08:25:26;;;;;;;105.45;5.72;;;;;;;23.18;54.59;99534.03;7306348;19;131098;-37
2023/10/09 08:27:55;;;;;;;61.58;3.75;;;;;;;23.24;54.82;99536.03;7305193;19;129397;-38
2023/10/09 08:33:03;;;;;;;134.70;7.03;;;;;;;23.24;55.24;99528.19;7304163;19;129547;-37
2023/10/09 08:35:33;;;;;;;68.25;3.95;;;;;;;23.17;55.56;99514.03;7304612;19;130792;-35
2023/10/09 08:38:07;;;;;;;106.65;5.63;;;;;;;23.13;55.57;99513.53;7304552;19;129219;-36
2023/10/09 08:40:38;;;;;;;77.15;4.32;;;;;;;23.27;55.06;99535.78;7306448;19;129843;-38
2023/10/09 08:43:20;;;;;;;74.72;4.15;;;;;;;23.25;55.01;99528.03;7305616;19;132515;-38
2023/10/09 08:45:46;;;;;;;54.22;3.25;;;;;;;23.17;55.15;99519.28;7305934;19;129601;-38
2023/10/09 08:48:15;;;;;;;161.30;8.33;;;;;;;23.26;55.54;99549.84;7304490;19;129145;-36
2023/10/09 08:50:43;;;;;;;81.57;4.78;;;;;;;23.24;55.19;99543.91;7304528;19;129605;-38
2023/10/09 08:53:10;;;;;;;102.38;5.18;;;;;;;23.25;55.11;99548.22;7303652;19;129517;-37
2023/10/09 08:55:38;;;;;;;73.53;3.90;;;;;;;23.24;55.38;99546.53;7304615;19;129363;-37
2023/10/09 08:58:10;;;;;;;122.80;6.32;;;;;;;23.26;54.78;99544.59;7304109;19;129101;-38
2023/10/09 09:00:39;;;;;;;70.80;3.90;;;;;;;23.25;55.64;99542.97;7305687;19;129734;-37
2023/10/09 09:03:05;;;;;;;108.88;5.78;;;;;;;23.28;55.27;99542.69;7305067;19;131142;-36
2023/10/09 09:05:35;;;;;;;50.10;3.25;;;;;;;23.24;55.57;99533.41;7304040;19;130831;-37
2023/10/09 09:08:02;;;;;;;101.70;5.30;;;;;;;23.23;54.97;99530.00;7300716;19;129172;-37
2023/10/09 09:10:35;;;;;;;;;;;;;;;23.22;56.17;99532.78;7301665;19;129336;-36
2023/10/09 09:13:03;;;;;;;78.63;4.45;;;;;;;23.12;55.09;99522.34;7303520;19;130767;-38
2023/10/09 09:15:29;;;;;;;74.47;4.38;;;;;;;23.24;55.23;99547.38;7301005;19;130333;-36
2023/10/09 09:18:06;;;;;;;58.13;3.75;;;;;;;23.24;56.54;99546.53;7302600;19;129428;-37
2023/10/09 09:20:36;;;;;;;101.50;5.30;;;;;;;23.25;55.35;99542.97;7302190;19;129859;-36
2023/10/09 09:23:05;;;;;;;107.13;5.28;;;;;;;23.24;55.57;99541.28;7300562;19;131233;-38
2023/10/09 09:25:45;;;;;;;106.63;5.65;;;;;;;23.24;56.39;99551.78;7300718;19;130804;-37
2023/10/09 09:28:21;;;;;;;130.90;7.05;;;;;;;23.21;55.42;99558.16;7297740;19;129963;-37
2023/10/09 09:30:50;;;;;;;89.20;4.88;;;;;;;23.25;55.19;99550.81;7299701;19;129183;-38
2023/10/09 09:33:30;;;;;;;98.32;5.13;;;;;;;23.25;56.15;99553.44;7298972;19;130315;-38
2023/10/09 09:36:06;;;;;;;118.88;6.00;;;;;;;23.24;56.00;99536.03;7303457;19;130563;-37
2023/10/09 09:38:47;;;;;;;128.43;6.38;;;;;;;23.24;55.30;99533.41;7299629;19;129490;-37
2023/10/09 09:41:23;;;;;;;145.13;7.35;;;;;;;23.15;55.67;99510.75;7302622;19;129215;-37
2023/10/09 09:43:55;;;;;;;44.78;2.80;;;;;;;23.20;55.32;99529.47;7304764;19;129530;-38
2023/10/09 09:46:27;;;;;;;125.35;6.80;;;;;;;23.06;53.78;99537.84;7300906;19;130784;-38
2023/10/09 09:48:54;;;;;;;79.15;4.47;;;;;;;23.11;55.76;99525.13;7307665;19;129128;-40
2023/10/09 09:51:20;;;;;;;123.03;6.68;;;;;;;23.23;55.40;99550.16;7308221;19;129287;-39
2023/10/09 09:53:49;;;;;;;115.77;5.57;;;;;;;23.24;54.96;99554.41;7307576;19;130233;-37
2023/10/09 09:56:18;;;;;;;91.45;4.68;;;;;;;23.22;54.87;99548.50;7309950;19;130747;-38
2023/10/09 09:58:53;;;;;;;64.93;3.67;;;;;;;23.24;55.50;99549.16;7307775;19;130388;-36
2023/10/09 10:01:26;;;;;;;86.75;5.00;;;;;;;23.24;55.59;99543.91;7309811;19;129104;-37
2023/10/09 10:04:00;;;;;;;143.63;7.20;;;;;;;23.25;55.98;99537.72;7307099;19;130995;-37
2023/10/09 10:06:29;;;;;;;177.23;8.90;;;;;;;23.23;55.87;99544.91;7308893;19;130436;-37
2023/10/09 10:08:54;;;;;;;64.93;3.58;;;;;;;23.23;55.58;99532.63;7308207;19;129883;-37
2023/10/09 10:11:46;;;;;;;96.97;5.33;;;;;;;23.21;56.18;99538.97;7309862;19;129530;-36
2023/10/09 10:14:31;;;;;;;95.82;5.00;;;;;;;23.22;56.13;99528.34;7306859;19;130263;-38
2023/10/09 10:17:06;;;;;;;108.13;5.65;;;;;;;23.21;56.26;99533.72;7308422;19;131055;-35
2023/10/09 10:20:01;;;;;;;99.38;5.28;;;;;;;23.20;56.06;99548.63;7305228;19;129565;-38
2023/10/09 10:22:27;;;;;;;135.85;6.78;;;;;;;23.21;55.55;99547.69;7306546;19;129659;-38
2023/10/09 10:24:53;;;;;;;73.68;4.00;;;;;;;23.21;55.56;99544.22;7307786;19;130410;-37
2023/10/09 10:27:27;;;;;;;148.27;7.40;;;;;;;23.22;55.63;99559.00;7308583;19;130192;-38
2023/10/09 10:30:25;;;;;;;53.90;3.03;;;;;;;23.21;56.75;99546.84;7307736;19;130301;-38
2023/10/09 10:33:09;;;;;;;111.45;5.45;;;;;;;23.22;55.34;99548.50;7307465;19;130028;-38
2023/10/09 10:38:34;;;;;;;147.25;7.57;;;;;;;23.18;56.66;99537.50;7304492;19;129520;-36
2023/10/09 10:41:11;;;;;;;96.97;5.15;;;;;;;23.20;55.97;99529.47;7306190;19;129107;-37
2023/10/09 10:46:37;;;;;;;74.32;4.38;;;;;;;23.16;55.48;99528.13;7308713;19;128936;-38
2023/10/09 10:49:16;;;;;;;59.60;3.50;;;;;;;23.19;55.67;99527.81;7306461;19;130251;-38
2023/10/09 10:51:48;;;;;;;65.53;3.63;;;;;;;23.21;55.81;99520.63;7308544;19;131577;-37
2023/10/09 10:56:58;;;;;;;112.82;6.00;;;;;;;23.22;55.59;99517.03;7308839;19;129225;-37
2023/10/09 10:59:26;;;;;;;130.17;6.57;;;;;;;23.18;55.29;99503.41;7306610;19;131160;-38
2023/10/09 11:02:13;;;;;;;106.70;5.57;;;;;;;23.19;56.12;99506.81;7309289;19;129491;-39
2023/10/09 11:04:42;;;;;;;79.10;4.13;;;;;;;23.15;55.52;99518.59;7309396;19;128983;-37
2023/10/09 11:07:24;;;;;;;90.90;4.80;;;;;;;22.86;53.95;99494.41;7308186;19;130199;-38
2023/10/09 11:10:27;;;;;;;76.10;3.95;;;;;;;23.11;55.58;99498.91;7306598;19;130558;-37
2023/10/09 11:12:53;;;;;;;44.65;2.83;;;;;;;23.16;55.31;99496.66;7307083;19;129167;-38
2023/10/09 11:15:43;;;;;;;83.35;4.75;;;;;;;23.17;56.30;99500.94;7308323;19;129890;-38
2023/10/09 11:18:20;;;;;;;109.32;5.45;;;;;;;23.18;55.70;99513.06;7307543;19;130263;-38
2023/10/09 11:28:56;;;;;;;112.75;5.55;;;;;;;23.22;55.22;99490.81;7308423;19;129426;-37
2023/10/09 11:31:22;;;;;;;128.50;6.75;;;;;;;23.19;55.76;99489.28;7308459;19;130468;-38
2023/10/09 11:33:51;;;;;;;52.57;3.03;;;;;;;23.20;55.77;99498.00;7306852;19;129212;-38
2023/10/09 11:36:17;;;;;;;86.90;4.30;;;;;;;23.16;55.98;99492.22;7307237;19;129339;-38
2023/10/09 11:38:45;;;;;;;78.85;4.35;;;;;;;23.23;55.84;99513.44;7306397;19;130912;-37
2023/10/09 11:41:18;;;;;;;87.18;4.50;;;;;;;23.20;55.63;99511.13;7308496;19;129249;-37
2023/10/09 11:43:51;;;;;;;81.65;4.22;;;;;;;23.18;55.88;99506.03;7308297;19;128942;-37
2023/10/09 11:54:31;;;;;;;124.03;6.22;;;;;;;23.16;56.60;99489.59;7305031;19;129101;-38
2023/10/09 11:57:00;;;;;;;98.93;5.28;;;;;;;23.21;55.71;99484.72;7306342;19;128901;-37
2023/10/09 11:59:37;;;;;;;146.80;7.22;;;;;;;23.20;55.54;99483.06;7305481;19;130224;-38
2023/10/09 12:02:11;;;;;;;85.03;4.30;;;;;;;23.20;56.05;99482.25;7306218;19;132928;-35
2023/10/09 12:04:37;;;;;;;82.15;4.18;;;;;;;23.20;55.85;99482.25;7307960;19;129308;-37
2023/10/09 12:07:09;;;;;;;72.07;3.85;;;;;;;23.12;55.60;99474.34;7304118;19;129251;-38
2023/10/09 12:09:36;;;;;;;106.75;5.35;;;;;;;23.21;55.51;99489.16;7302845;19;129874;-37
2023/10/09 12:12:04;;;;;;;115.57;5.43;;;;;;;23.21;56.46;99484.72;7307256;19;131486;-38
2023/10/09 12:14:37;;;;;;;97.88;5.07;;;;;;;23.20;56.10;99483.06;7305431;19;129427;-38
2023/10/09 12:17:07;;;;;;;99.03;5.30;;;;;;;23.23;55.56;99481.94;7306136;19;128969;-38
2023/10/09 12:19:33;;;;;;;90.57;4.88;;;;;;;23.20;55.62;99483.06;7304832;19;130277;-38
2023/10/09 12:22:05;;;;;;;91.38;4.50;;;;;;;23.06;54.86;99482.78;7307231;19;131094;-39
2023/10/09 12:24:33;;;;;;;125.88;6.32;;;;;;;23.11;54.95;99481.38;7306781;19;129178;-37
2023/10/09 12:27:00;;;;;;;97.85;5.25;;;;;;;23.14;55.18;99488.09;7305912;19;129320;-38
2023/10/09 12:29:29;;;;;;;123.25;6.53;;;;;;;23.18;55.26;99492.06;7303855;19;130131;-38
2023/10/09 12:31:58;;;;;;;53.80;2.92;;;;;;;23.18;55.42;99489.44;7306125;19;131935;-38
2023/10/09 12:34:26;;;;;;;130.35;6.28;;;;;;;23.18;55.69;99495.53;7304512;19;129338;-36
2023/10/09 12:36:55;;;;;;;78.40;4.20;;;;;;;23.20;55.52;99484.88;7305163;19;129353;-35
2023/10/09 12:39:21;;;;;;;42.40;2.45;;;;;;;23.20;55.50;99488.31;7303766;19;131404;-39
2023/10/09 12:41:48;;;;;;;91.25;4.82;;;;;;;23.21;55.85;99489.16;7304187;19;130463;-38
2023/10/09 12:44:19;;;;;;;135.60;6.50;;;;;;;23.18;55.89;99484.22;7305603;19;129449;-38
2023/10/09 12:46:51;;;;;;;75.93;3.85;;;;;;;23.17;56.20;99493.06;7306758;19;128810;-38
2023/10/09 12:49:26;;;;;;;93.60;4.82;;;;;;;23.16;55.89;99484.38;7305049;19;130320;-38
2023/10/09 12:51:52;;;;;;;67.25;3.72;;;;;;;23.06;55.72;99467.06;7304900;19;131028;-38
2023/10/09 12:54:20;;;;;;;111.47;5.55;;;;;;;23.18;56.34;99485.03;7303036;19;129253;-39
2023/10/09 12:56:48;;;;;;;108.70;5.28;;;;;;;23.12;55.92;99475.13;7304433;19;129008;-38
2023/10/09 12:59:14;;;;;;;49.00;3.03;;;;;;;23.19;55.52;99476.19;7304559;19;130455;-38
2023/10/09 13:01:43;;;;;;;65.13;3.38;;;;;;;23.08;56.13;99463.31;7304658;19;130157;-38
2023/10/09 13:04:16;;;;;;;66.82;3.85;;;;;;;23.19;56.32;99480.59;7305976;19;129149;-35
2023/10/09 13:06:45;;;;;;;84.72;4.35;;;;;;;23.17;55.91;99482.56;7304435;19;129666;-37
2023/10/09 13:09:15;;;;;;;125.15;5.85;;;;;;;23.17;56.51;99474.69;7303108;19;130840;-37
2023/10/09 13:11:42;;;;;;;53.78;2.97;;;;;;;23.19;56.04;99475.34;7305682;19;130355;-38
2023/10/09 13:14:17;;;;;;;78.88;3.90;;;;;;;23.16;56.05;99470.41;7304411;19;128951;-38
2023/10/09 13:16:43;;;;;;;63.47;3.35;;;;;;;23.19;56.10;99475.34;7303275;19;129301;-38
2023/10/09 13:19:12;;;;;;;138.55;6.47;;;;;;;23.16;56.26;99465.16;7302214;19;129361;-36
2023/10/09 13:21:40;;;;;;;108.75;5.40;;;;;;;23.09;56.05;99448.38;7303785;19;131077;-42
2023/10/09 13:24:12;;;;;;;81.95;4.18;;;;;;;23.18;56.07;99478.97;7309508;19;129936;-38
2023/10/09 13:26:38;;;;;;;106.97;5.38;;;;;;;23.20;55.81;99466.53;7312293;19;129387;-39
2023/10/09 13:29:03;;;;;;;74.83;3.83;;;;;;;23.18;56.34;99469.31;7310015;19;130231;-38
2023/10/09 13:31:33;;;;;;;131.20;6.35;;;;;;;23.20;55.79;99471.78;7310828;19;130448;-37
2023/10/09 13:34:00;;;;;;;88.30;4.47;;;;;;;23.17;55.98;99472.09;7310331;19;129058;-37
2023/10/09 13:36:26;;;;;;;88.75;4.60;;;;;;;23.16;56.57;99465.16;7310431;19;129312;-38
2023/10/09 13:38:55;;;;;;;76.03;3.77;;;;;;;23.18;56.37;99460.59;7310077;19;130527;-37
2023/10/09 13:41:22;;;;;;;133.13;6.03;;;;;;;23.06;55.68;99467.06;7309476;19;130990;-37
2023/10/09 13:43:51;;;;;;;63.45;3.25;;;;;;;23.01;55.07;99472.75;7312104;19;129457;-36
2023/10/09 13:46:17;;;;;;;107.30;5.20;;;;;;;23.09;54.88;99478.06;7308952;19;129602;-38
2023/10/09 13:48:45;;;;;;;58.53;3.08;;;;;;;23.12;56.29;99469.09;7309218;19;130975;-38
2023/10/09 13:51:17;;;;;;;108.40;5.15;;;;;;;23.15;55.76;99461.72;7311902;19;130473;-38
2023/10/09 13:53:47;;;;;;;99.65;5.22;;;;;;;23.13;55.60;99471.56;7309699;19;129267;-38
2023/10/09 13:56:20;;;;;;;77.07;4.13;;;;;;;23.18;55.69;99478.97;7310607;19;129771;-35
2023/10/09 13:58:46;;;;;;;51.30;2.83;;;;;;;23.20;55.37;99471.78;7309303;19;130633;-38
2023/10/09 14:01:20;;;;;;;80.37;4.20;;;;;;;23.08;55.87;99452.00;7311692;19;130497;-38
2023/10/09 14:03:49;;;;;;;80.75;4.18;;;;;;;23.17;55.65;99466.84;7309072;19;129236;-36
2023/10/09 14:06:19;;;;;;;67.20;3.50;;;;;;;23.17;56.31;99477.31;7311392;19;128868;-37